Time;durP1;ratioP1;P1;durP2;ratioP2;P2;SDS_P1;SDS_P2;PMS_P1;PMS_P2;Temp;Humidity;BMP_temperature;BMP_pressure;BME280_temperature;BME280_humidity;BME280_pressure;Samples;Min_cycle;Max_cycle;Signal;HPM_P1;HPM_P2
2023/01/25 00:01:59;;;;;;;1999.90;999.90;;;3.00;99.90;;;;;;5036222;28;20407;-73
2023/01/25 00:04:25;;;;;;;1999.90;999.90;;;3.00;99.90;;;;;;5035812;28;20195;-73
2023/01/25 00:06:51;;;;;;;1999.90;999.90;;;3.00;99.90;;;;;;5035704;28;20407;-73
2023/01/25 00:09:17;;;;;;;1999.90;999.90;;;3.00;99.90;;;;;;5035541;28;20190;-73
2023/01/25 00:11:43;;;;;;;1999.90;999.90;;;3.00;99.90;;;;;;5035374;28;20804;-73
2023/01/25 00:14:10;;;;;;;1999.90;999.90;;;2.90;99.90;;;;;;5035233;28;20196;-73
2023/01/25 00:16:37;;;;;;;1999.90;999.90;;;3.00;99.90;;;;;;5035268;28;20597;-73
2023/01/25 00:19:03;;;;;;;1999.90;999.90;;;3.00;99.90;;;;;;5034931;28;20180;-73
2023/01/25 00:21:29;;;;;;;1999.90;999.90;;;3.00;99.90;;;;;;5035130;28;20176;-73
2023/01/25 00:23:54;;;;;;;1999.90;999.90;;;3.00;99.90;;;;;;5017229;28;20682;-73
2023/01/25 00:26:20;;;;;;;1999.90;999.90;;;2.90;99.90;;;;;;5034960;28;20192;-73
2023/01/25 00:28:53;;;;;;;1999.90;999.90;;;2.90;99.90;;;;;;5034969;28;20164;-73
2023/01/25 00:31:39;;;;;;;1999.90;999.90;;;2.70;99.90;;;;;;5034785;28;20413;-73
2023/01/25 00:34:23;;;;;;;1999.90;999.90;;;3.00;99.90;;;;;;5034814;28;20196;-73
2023/01/25 00:37:02;;;;;;;1999.90;999.90;;;3.00;99.90;;;;;;5034730;28;20175;-73
2023/01/25 00:39:28;;;;;;;1999.90;999.90;;;3.10;99.90;;;;;;5034634;28;20176;-73
2023/01/25 00:41:54;;;;;;;1999.90;999.90;;;3.10;99.90;;;;;;5034771;28;20223;-73
2023/01/25 00:44:20;;;;;;;1999.90;999.90;;;3.10;99.90;;;;;;5034616;28;20454;-73
2023/01/25 00:46:46;;;;;;;1999.90;999.90;;;3.20;99.90;;;;;;5034716;28;20179;-73
2023/01/25 00:49:23;;;;;;;1999.90;999.90;;;3.20;99.90;;;;;;5034473;28;20403;-74
2023/01/25 00:51:49;;;;;;;1999.90;999.90;;;3.20;99.90;;;;;;5034415;28;20168;-73
2023/01/25 00:54:15;;;;;;;1999.90;999.90;;;3.20;99.90;;;;;;5034373;28;20200;-73
2023/01/25 00:56:41;;;;;;;1999.90;999.90;;;3.20;99.90;;;;;;5034477;28;20411;-73
2023/01/25 00:59:06;;;;;;;1999.90;999.90;;;3.20;99.90;;;;;;5034219;28;20591;-73
2023/01/25 01:01:33;;;;;;;1999.90;999.90;;;3.10;99.90;;;;;;5034417;28;20541;-73
2023/01/25 01:03:59;;;;;;;1999.90;999.90;;;3.10;99.90;;;;;;5034107;28;20242;-73
2023/01/25 01:06:24;;;;;;;1999.90;999.90;;;3.10;99.90;;;;;;5034287;28;20681;-74
2023/01/25 01:08:50;;;;;;;1999.90;999.90;;;3.10;99.90;;;;;;5034602;28;20172;-73
2023/01/25 01:11:15;;;;;;;1999.90;999.90;;;3.10;99.90;;;;;;5034071;28;20164;-73
2023/01/25 01:13:41;;;;;;;1999.90;999.90;;;2.90;99.90;;;;;;5034192;28;20184;-73
2023/01/25 01:16:10;;;;;;;1999.90;999.90;;;3.00;99.90;;;;;;5034115;28;20184;-73
2023/01/25 01:18:42;;;;;;;1999.90;999.90;;;3.00;99.90;;;;;;5033997;28;20168;-73
2023/01/25 01:21:08;;;;;;;1999.90;999.90;;;3.00;99.90;;;;;;5033858;28;20402;-73
2023/01/25 01:23:34;;;;;;;1999.90;999.90;;;2.90;99.90;;;;;;5033891;28;20204;-73
2023/01/25 01:26:01;;;;;;;1999.90;999.90;;;2.90;99.90;;;;;;5033803;28;20168;-73
2023/01/25 01:28:31;;;;;;;1999.90;999.90;;;3.20;99.90;;;;;;5033898;28;20164;-73
2023/01/25 01:31:01;;;;;;;1999.90;999.90;;;2.90;99.90;;;;;;4999527;28;20575;-73
2023/01/25 01:33:27;;;;;;;1999.90;999.90;;;2.80;99.90;;;;;;5033755;28;20244;-73
2023/01/25 01:35:52;;;;;;;1999.90;999.90;;;2.90;99.90;;;;;;5034015;28;20255;-73
2023/01/25 01:38:18;;;;;;;1999.90;999.90;;;2.90;99.90;;;;;;5035069;28;20222;-73
2023/01/25 01:40:45;;;;;;;1999.90;999.90;;;2.90;99.90;;;;;;5035073;28;20179;-73
2023/01/25 01:43:20;;;;;;;1999.90;999.90;;;2.90;99.90;;;;;;5034858;28;20196;-73
2023/01/25 01:45:55;;;;;;;1999.90;999.90;;;2.90;99.90;;;;;;5034575;28;20317;-73
2023/01/25 01:48:38;;;;;;;1999.90;999.90;;;3.00;99.90;;;;;;5034829;28;20226;-73
2023/01/25 01:51:18;;;;;;;1999.90;999.90;;;3.00;99.90;;;;;;5034466;28;20263;-73
2023/01/25 01:53:51;;;;;;;1999.90;999.90;;;3.00;99.90;;;;;;5016907;28;20212;-73
2023/01/25 01:56:26;;;;;;;1999.90;999.90;;;3.00;99.90;;;;;;5034728;28;20444;-73
2023/01/25 01:58:53;;;;;;;1999.90;999.90;;;3.00;99.90;;;;;;5035359;28;20176;-73
2023/01/25 02:01:19;;;;;;;1999.90;999.90;;;3.00;99.90;;;;;;5034580;28;20407;-73
2023/01/25 02:03:45;;;;;;;1999.90;999.90;;;3.00;99.90;;;;;;5034047;28;20204;-73
2023/01/25 02:06:54;;;;;;;1999.90;999.90;;;3.00;99.90;;;;;;5038288;28;20173;-73
2023/01/25 02:09:24;;;;;;;1999.90;999.90;;;3.00;99.90;;;;;;5027116;28;21081;-73
2023/01/25 02:11:51;;;;;;;1999.90;999.90;;;3.10;99.90;;;;;;5035415;28;20177;-73
2023/01/25 02:14:18;;;;;;;1999.90;999.90;;;3.10;99.90;;;;;;5035094;28;20434;-73
2023/01/25 02:16:44;;;;;;;1999.90;999.90;;;3.10;99.90;;;;;;5034737;28;20263;-73
2023/01/25 02:19:27;;;;;;;1999.90;999.90;;;3.10;99.90;;;;;;5035308;28;20670;-73
2023/01/25 02:21:55;;;;;;;1999.90;999.90;;;3.10;99.90;;;;;;5035078;28;20204;-73
2023/01/25 02:24:31;;;;;;;1999.90;999.90;;;3.00;99.90;;;;;;5034639;28;20718;-73
2023/01/25 02:26:56;;;;;;;1999.90;999.90;;;3.00;99.90;;;;;;5034773;28;20178;-73
2023/01/25 02:29:24;;;;;;;1999.90;999.90;;;3.00;99.90;;;;;;5034220;28;20650;-73
2023/01/25 02:32:06;;;;;;;1999.90;999.90;;;3.00;99.90;;;;;;5034706;28;20207;-73
2023/01/25 02:34:32;;;;;;;1999.90;999.90;;;3.10;99.90;;;;;;5034130;28;20681;-73
2023/01/25 02:36:58;;;;;;;1999.90;999.90;;;3.10;99.90;;;;;;5033811;28;20407;-73
2023/01/25 02:39:26;;;;;;;1999.90;999.90;;;3.10;99.90;;;;;;5034274;28;20259;-73
2023/01/25 02:41:52;;;;;;;1999.90;999.90;;;3.20;99.90;;;;;;5034002;28;20486;-73
2023/01/25 02:44:25;;;;;;;1999.90;999.90;;;3.10;99.90;;;;;;5033539;28;20554;-73
2023/01/25 02:46:51;;;;;;;1999.90;999.90;;;3.10;99.90;;;;;;5033417;28;20411;-73
2023/01/25 02:49:17;;;;;;;1999.90;999.90;;;3.00;99.90;;;;;;5033730;28;20972;-73
2023/01/25 02:51:46;;;;;;;1999.90;999.90;;;3.00;99.90;;;;;;5033558;28;20789;-73
2023/01/25 02:54:15;;;;;;;1999.90;999.90;;;2.90;99.90;;;;;;5033234;28;20257;-73
2023/01/25 02:56:41;;;;;;;1999.90;999.90;;;2.90;99.90;;;;;;5032844;28;20415;-73
2023/01/25 02:59:08;;;;;;;1999.90;999.90;;;2.80;99.90;;;;;;5033194;28;20581;-73
2023/01/25 03:01:35;;;;;;;1999.90;999.90;;;2.80;99.90;;;;;;5033286;28;20553;-73
2023/01/25 03:04:01;;;;;;;1999.90;999.90;;;2.90;99.90;;;;;;5032908;28;20281;-73
2023/01/25 03:06:26;;;;;;;1999.90;999.90;;;2.90;99.90;;;;;;5032883;28;20626;-73
2023/01/25 03:08:52;;;;;;;1999.90;999.90;;;2.90;99.90;;;;;;5033104;28;20200;-73
2023/01/25 03:11:17;;;;;;;1999.90;999.90;;;2.90;99.90;;;;;;5033212;28;20223;-73
2023/01/25 03:13:43;;;;;;;1999.90;999.90;;;2.90;99.90;;;;;;5031979;28;20187;-73
2023/01/25 03:16:11;;;;;;;1999.90;999.90;;;2.90;99.90;;;;;;5032806;28;20200;-73
2023/01/25 03:18:38;;;;;;;1999.90;999.90;;;2.80;99.90;;;;;;5032917;28;20176;-73
2023/01/25 03:21:05;;;;;;;1999.90;999.90;;;2.80;99.90;;;;;;5032695;28;20434;-73
2023/01/25 03:23:31;;;;;;;1999.90;999.90;;;2.80;99.90;;;;;;5032621;28;20212;-73
2023/01/25 03:26:10;;;;;;;1999.90;999.90;;;2.80;99.90;;;;;;5032665;28;20204;-72
2023/01/25 03:28:37;;;;;;;1999.90;999.90;;;2.70;99.90;;;;;;5032951;28;20172;-72
2023/01/25 03:31:03;;;;;;;1999.90;999.90;;;2.70;99.90;;;;;;5032821;28;20192;-72
2023/01/25 03:33:29;;;;;;;1999.90;999.90;;;2.70;99.90;;;;;;5032600;28;20196;-72
2023/01/25 03:35:55;;;;;;;1999.90;999.90;;;2.70;99.90;;;;;;5033129;28;20221;-72
2023/01/25 03:38:21;;;;;;;1999.90;999.90;;;2.70;99.90;;;;;;5032946;28;20255;-73
2023/01/25 03:40:48;;;;;;;1999.90;999.90;;;2.60;99.90;;;;;;5033157;28;20176;-73
2023/01/25 03:43:14;;;;;;;1999.90;999.90;;;2.70;99.90;;;;;;5032619;28;20265;-73
2023/01/25 03:45:40;;;;;;;1999.90;999.90;;;2.70;99.90;;;;;;5032916;28;20525;-72
2023/01/25 03:48:05;;;;;;;1999.90;999.90;;;2.80;99.90;;;;;;5031666;28;20183;-72
2023/01/25 03:50:31;;;;;;;1999.90;999.90;;;2.80;99.90;;;;;;5031466;28;20756;-72
2023/01/25 03:53:05;;;;;;;1999.90;999.90;;;2.90;99.90;;;;;;5031460;28;20670;-72
2023/01/25 03:55:32;;;;;;;1999.90;999.90;;;2.90;99.90;;;;;;5031623;28;20603;-72
2023/01/25 03:57:57;;;;;;;1999.90;999.90;;;2.90;99.90;;;;;;5031566;28;20406;-71
2023/01/25 04:00:23;;;;;;;1999.90;999.90;;;2.90;99.90;;;;;;5031396;28;20169;-72
2023/01/25 04:02:49;;;;;;;1999.90;999.90;;;3.00;99.90;;;;;;5031582;28;20607;-72
2023/01/25 04:05:14;;;;;;;1999.90;999.90;;;3.00;99.90;;;;;;5031407;28;20200;-72
2023/01/25 04:07:40;;;;;;;1999.90;999.90;;;3.00;99.90;;;;;;5031527;28;20175;-73
2023/01/25 04:10:06;;;;;;;1999.90;999.90;;;3.00;99.90;;;;;;5031390;28;20187;-72
2023/01/25 04:12:32;;;;;;;1999.90;999.90;;;2.80;99.90;;;;;;5031342;28;20169;-72
2023/01/25 04:14:57;;;;;;;1999.90;999.90;;;3.00;99.90;;;;;;5031548;28;20176;-72
2023/01/25 04:17:23;;;;;;;1999.90;999.90;;;3.00;99.90;;;;;;5031340;28;20176;-72
2023/01/25 04:19:48;;;;;;;1999.90;999.90;;;2.90;99.90;;;;;;5031181;28;20177;-72
2023/01/25 04:22:15;;;;;;;1999.90;999.90;;;2.80;99.90;;;;;;5032100;28;20187;-73
2023/01/25 04:24:41;;;;;;;1999.90;999.90;;;2.80;99.90;;;;;;5031386;28;20220;-73
2023/01/25 04:27:07;;;;;;;1999.90;999.90;;;2.70;99.90;;;;;;5034853;28;20179;-73
2023/01/25 04:29:33;;;;;;;1999.90;999.90;;;2.70;99.90;;;;;;5034806;28;20172;-73
2023/01/25 04:31:59;;;;;;;1999.90;999.90;;;2.70;99.90;;;;;;5034899;28;20635;-72
2023/01/25 04:34:25;;;;;;;1999.90;999.90;;;2.70;99.90;;;;;;5034802;28;20427;-73
2023/01/25 04:36:50;;;;;;;1999.90;999.90;;;2.70;99.90;;;;;;5034871;28;20427;-73
2023/01/25 04:39:16;;;;;;;1999.90;999.90;;;2.70;99.90;;;;;;5034629;28;20165;-73
2023/01/25 04:41:41;;;;;;;1999.90;999.90;;;2.70;99.90;;;;;;5034868;28;20255;-73
2023/01/25 04:44:07;;;;;;;1999.90;999.90;;;2.60;99.90;;;;;;5034706;28;20196;-72
2023/01/25 04:46:33;;;;;;;1999.90;999.90;;;2.60;99.90;;;;;;5034568;28;20215;-73
2023/01/25 04:48:58;;;;;;;1999.90;999.90;;;2.50;99.90;;;;;;5034476;28;20203;-73
2023/01/25 04:51:24;;;;;;;1999.90;999.90;;;2.50;99.90;;;;;;5034637;28;20169;-73
2023/01/25 04:53:49;;;;;;;1999.90;999.90;;;2.50;99.90;;;;;;5034419;28;20699;-73
2023/01/25 04:56:15;;;;;;;1999.90;999.90;;;2.50;99.90;;;;;;5052472;28;20167;-73
2023/01/25 04:58:40;;;;;;;1999.90;999.90;;;2.50;99.90;;;;;;5054472;28;20202;-73
2023/01/25 05:01:06;;;;;;;1999.90;999.90;;;2.50;99.90;;;;;;5054236;28;20210;-72
2023/01/25 05:03:32;;;;;;;1999.90;999.90;;;2.60;99.90;;;;;;5054199;28;20608;-73
2023/01/25 05:05:57;;;;;;;1999.90;999.90;;;2.50;99.90;;;;;;5054261;28;20175;-73
2023/01/25 05:08:24;;;;;;;1999.90;999.90;;;2.50;99.90;;;;;;5054313;28;20512;-73
2023/01/25 05:10:50;;;;;;;1999.90;999.90;;;2.50;99.90;;;;;;5053898;28;20179;-73
2023/01/25 05:13:16;;;;;;;1999.90;999.90;;;2.50;99.90;;;;;;5054136;28;20187;-73
2023/01/25 05:15:41;;;;;;;1999.90;999.90;;;2.40;99.90;;;;;;5054084;28;20164;-73
2023/01/25 05:18:07;;;;;;;1999.90;999.90;;;2.30;99.90;;;;;;5053947;28;20164;-73
2023/01/25 05:20:32;;;;;;;1999.90;999.90;;;2.30;99.90;;;;;;5053866;28;20168;-73
2023/01/25 05:22:58;;;;;;;1999.90;999.90;;;2.30;99.90;;;;;;5053895;28;20183;-73
2023/01/25 05:28:08;;;;;;;1999.90;999.90;;;2.40;99.90;;;;;;5053887;28;20661;-73
2023/01/25 05:30:34;;;;;;;1999.90;999.90;;;2.40;99.90;;;;;;5053662;28;20191;-73
2023/01/25 05:32:59;;;;;;;1999.90;999.90;;;2.40;99.90;;;;;;5053723;28;20630;-73
2023/01/25 05:35:25;;;;;;;1999.90;999.90;;;2.50;99.90;;;;;;5053780;28;20187;-73
2023/01/25 05:37:58;;;;;;;1999.90;999.90;;;2.50;99.90;;;;;;5052571;28;20183;-73
2023/01/25 05:40:25;;;;;;;1999.90;999.90;;;2.60;99.90;;;;;;5053434;28;20180;-73
2023/01/25 05:42:57;;;;;;;1999.90;999.90;;;2.60;99.90;;;;;;5053519;28;20242;-73
2023/01/25 05:45:23;;;;;;;1999.90;999.90;;;2.60;99.90;;;;;;5053374;28;20259;-73
2023/01/25 05:47:53;;;;;;;1999.90;999.90;;;2.60;99.90;;;;;;5053400;28;20164;-73
2023/01/25 05:50:19;;;;;;;1999.90;999.90;;;2.40;99.90;;;;;;5053385;28;20445;-72
2023/01/25 05:52:46;;;;;;;1999.90;999.90;;;2.20;99.90;;;;;;5053313;28;20164;-73
2023/01/25 05:55:11;;;;;;;1999.90;999.90;;;2.30;99.90;;;;;;5053190;28;20562;-73
2023/01/25 05:57:37;;;;;;;1999.90;999.90;;;2.20;99.90;;;;;;5053251;28;20176;-73
2023/01/25 06:00:06;;;;;;;1999.90;999.90;;;2.20;99.90;;;;;;5053034;28;20207;-72
2023/01/25 06:02:32;;;;;;;1999.90;999.90;;;2.20;99.90;;;;;;5052800;28;20533;-73
2023/01/25 06:04:58;;;;;;;1999.90;999.90;;;2.30;99.90;;;;;;5053235;28;20222;-73
2023/01/25 06:07:24;;;;;;;1999.90;999.90;;;2.30;99.90;;;;;;5053026;28;20160;-73
2023/01/25 06:09:50;;;;;;;1999.90;999.90;;;2.30;99.90;;;;;;5053114;28;20388;-71
2023/01/25 06:12:18;;;;;;;1999.90;999.90;;;2.40;99.90;;;;;;5053076;28;20179;-72
2023/01/25 06:14:46;;;;;;;1999.90;999.90;;;2.40;99.90;;;;;;5053688;28;20256;-73
2023/01/25 06:17:12;;;;;;;1999.90;999.90;;;2.40;99.90;;;;;;5054639;28;20184;-72
2023/01/25 06:19:38;;;;;;;1999.90;999.90;;;2.40;99.90;;;;;;5053708;28;20175;-72
2023/01/25 06:22:03;;;;;;;1999.90;999.90;;;2.50;99.90;;;;;;5054051;28;20186;-72
2023/01/25 06:24:29;;;;;;;1999.90;999.90;;;2.50;99.90;;;;;;5053430;28;20454;-72
2023/01/25 06:26:55;;;;;;;1999.90;999.90;;;2.50;99.90;;;;;;5053005;28;20164;-71
2023/01/25 06:29:20;;;;;;;1999.90;999.90;;;2.50;99.90;;;;;;5052574;28;20163;-71
2023/01/25 06:31:46;;;;;;;1999.90;999.90;;;2.40;99.90;;;;;;5052624;28;20175;-72
2023/01/25 06:34:11;;;;;;;1999.90;999.90;;;2.40;99.90;;;;;;5052633;28;20218;-72
2023/01/25 06:36:37;;;;;;;1999.90;999.90;;;2.30;99.90;;;;;;5052807;28;20175;-72
2023/01/25 06:39:03;;;;;;;1999.90;999.90;;;2.30;99.90;;;;;;5052806;28;20715;-72
2023/01/25 06:41:29;;;;;;;1999.90;999.90;;;2.30;99.90;;;;;;5053028;28;20526;-71
2023/01/25 06:43:55;;;;;;;1999.90;999.90;;;2.30;99.90;;;;;;5052499;28;20234;-71
2023/01/25 06:46:20;;;;;;;1999.90;999.90;;;2.30;99.90;;;;;;5052326;28;20398;-72
2023/01/25 06:48:46;;;;;;;1999.90;999.90;;;2.40;99.90;;;;;;5052155;28;20532;-73
2023/01/25 06:51:13;;;;;;;1999.90;999.90;;;2.40;99.90;;;;;;5052181;28;20194;-71
2023/01/25 06:53:41;;;;;;;1999.90;999.90;;;2.40;99.90;;;;;;5053108;28;20210;-72
2023/01/25 06:56:16;;;;;;;1999.90;999.90;;;2.30;99.90;;;;;;5053284;28;20599;-72
2023/01/25 06:58:42;;;;;;;1999.90;999.90;;;2.30;99.90;;;;;;5053392;28;20228;-72
2023/01/25 07:01:18;;;;;;;1999.90;999.90;;;2.30;99.90;;;;;;5053078;28;20172;-72
2023/01/25 07:03:50;;;;;;;1999.90;999.90;;;2.30;99.90;;;;;;5053077;28;20270;-72
2023/01/25 07:06:16;;;;;;;1999.90;999.90;;;2.30;99.90;;;;;;5053164;28;20168;-72
2023/01/25 07:08:42;;;;;;;1999.90;999.90;;;2.30;99.90;;;;;;5052744;28;20540;-72
2023/01/25 07:11:12;;;;;;;1999.90;999.90;;;2.20;99.90;;;;;;5052823;28;20172;-72
2023/01/25 07:13:39;;;;;;;1999.90;999.90;;;2.20;99.90;;;;;;5052818;28;20191;-72
2023/01/25 07:16:07;;;;;;;1999.90;999.90;;;2.30;99.90;;;;;;5052683;28;20536;-72
2023/01/25 07:18:36;;;;;;;1999.90;999.90;;;2.30;99.90;;;;;;5052745;28;20168;-72
2023/01/25 07:21:09;;;;;;;1999.90;999.90;;;2.40;99.90;;;;;;5052623;28;20179;-72
2023/01/25 07:23:36;;;;;;;1999.90;999.90;;;2.40;99.90;;;;;;5052423;28;20192;-72
2023/01/25 07:26:03;;;;;;;1999.90;999.90;;;2.40;12.30;;;;;;5052639;28;20167;-72
2023/01/25 07:28:31;;;;;;;1999.90;999.90;;;2.40;10.70;;;;;;5052700;28;20178;-72
2023/01/25 07:31:04;;;;;;;1999.90;999.90;;;2.20;15.10;;;;;;5052255;28;20186;-72
2023/01/25 07:33:30;;;;;;;1999.90;999.90;;;2.20;29.00;;;;;;5052579;28;20278;-72
2023/01/25 07:35:59;;;;;;;1999.90;999.90;;;2.20;32.90;;;;;;5052678;28;20199;-71
2023/01/25 07:38:25;;;;;;;1999.90;999.90;;;2.10;37.60;;;;;;5053276;28;20172;-71
2023/01/25 07:40:52;;;;;;;1999.90;999.90;;;2.20;50.50;;;;;;5053133;28;20171;-71
2023/01/25 07:43:18;;;;;;;1999.90;999.90;;;2.20;52.40;;;;;;5053912;28;20430;-72
2023/01/25 07:45:47;;;;;;;1999.90;999.90;;;2.30;44.90;;;;;;5054362;28;20172;-72
2023/01/25 07:48:14;;;;;;;1999.90;999.90;;;2.20;26.10;;;;;;5054020;28;20167;-72
2023/01/25 07:50:40;;;;;;;1999.90;999.90;;;2.10;33.30;;;;;;5054287;28;20175;-72
2023/01/25 07:53:06;;;;;;;1999.90;999.90;;;2.10;30.30;;;;;;5053744;28;20192;-72
2023/01/25 07:55:32;;;;;;;1999.90;999.90;;;2.00;47.70;;;;;;5053639;28;20179;-72
2023/01/25 07:57:59;;;;;;;1999.90;999.90;;;2.00;55.20;;;;;;5053702;28;20180;-71
2023/01/25 08:00:25;;;;;;;1999.90;999.90;;;2.00;74.60;;;;;;5054901;28;20175;-71
2023/01/25 08:02:51;;;;;;;1999.90;999.90;;;2.00;69.30;;;;;;5057317;28;20206;-71
2023/01/25 08:05:18;;;;;;;1999.90;999.90;;;1.90;67.30;;;;;;5057366;28;20191;-72
2023/01/25 08:07:43;;;;;;;1999.90;999.90;;;1.80;84.60;;;;;;5057478;28;20191;-72
2023/01/25 08:10:10;;;;;;;1999.90;999.90;;;1.90;99.80;;;;;;5057327;28;20171;-72
2023/01/25 08:12:36;;;;;;;1999.90;999.90;;;2.00;99.90;;;;;;5057941;28;20406;-72
2023/01/25 08:15:03;;;;;;;1999.90;999.90;;;2.00;93.60;;;;;;5056847;28;20180;-72
2023/01/25 08:17:31;;;;;;;1999.90;999.90;;;2.00;92.80;;;;;;5055756;28;20191;-72
2023/01/25 08:19:58;;;;;;;1999.90;999.90;;;2.10;94.90;;;;;;5054962;28;20182;-71
2023/01/25 08:22:23;;;;;;;1999.90;999.90;;;2.20;94.80;;;;;;5055358;28;20677;-71
2023/01/25 08:24:49;;;;;;;1999.90;999.90;;;2.20;89.70;;;;;;5037029;28;20253;-71
2023/01/25 08:27:15;;;;;;;1999.90;999.90;;;2.20;62.70;;;;;;5054938;28;20460;-71
2023/01/25 08:29:40;;;;;;;1999.90;999.90;;;2.10;47.90;;;;;;5054769;28;20172;-71
2023/01/25 08:32:06;;;;;;;1999.90;999.90;;;2.10;53.80;;;;;;5054988;28;20735;-71
2023/01/25 08:34:33;;;;;;;1999.90;999.90;;;2.00;70.40;;;;;;5055109;28;20802;-71
2023/01/25 08:36:59;;;;;;;1999.90;999.90;;;2.00;80.30;;;;;;5048564;28;20820;-72
2023/01/25 08:39:24;;;;;;;1999.90;999.90;;;2.00;81.90;;;;;;5034669;28;20263;-71
2023/01/25 08:41:50;;;;;;;1999.90;999.90;;;2.00;90.40;;;;;;5034764;28;20411;-71
2023/01/25 08:44:21;;;;;;;1999.90;999.90;;;2.00;90.90;;;;;;5034691;28;20465;-71
2023/01/25 08:46:46;;;;;;;1999.90;999.90;;;2.00;95.90;;;;;;5034658;28;20161;-71
2023/01/25 08:49:12;;;;;;;1999.90;999.90;;;2.00;96.60;;;;;;5034517;28;20247;-71
2023/01/25 08:51:38;;;;;;;1999.90;999.90;;;2.00;98.70;;;;;;5034667;28;20175;-71
2023/01/25 08:54:10;;;;;;;1999.90;999.90;;;2.10;99.90;;;;;;5034394;28;20204;-71
2023/01/25 08:56:40;;;;;;;1999.90;999.90;;;2.10;99.90;;;;;;5034467;28;20247;-71
2023/01/25 08:59:06;;;;;;;1999.90;999.90;;;2.10;92.40;;;;;;5034261;28;20204;-71
2023/01/25 09:01:32;;;;;;;1999.90;999.90;;;2.10;93.80;;;;;;5034480;28;20176;-71
2023/01/25 09:03:58;;;;;;;1999.90;999.90;;;2.10;98.60;;;;;;5034191;28;20200;-71
2023/01/25 09:06:23;;;;;;;1999.90;999.90;;;2.10;99.90;;;;;;5034237;28;20426;-71
2023/01/25 09:08:49;;;;;;;1999.90;999.90;;;2.10;99.90;;;;;;5034326;28;20169;-71
2023/01/25 09:11:18;;;;;;;1999.90;999.90;;;2.10;99.90;;;;;;5034060;28;20506;-71
2023/01/25 09:13:44;;;;;;;1999.90;999.90;;;2.30;99.90;;;;;;5034066;28;20188;-71
2023/01/25 09:16:16;;;;;;;1999.90;999.90;;;2.20;87.00;;;;;;5034098;28;20256;-71
2023/01/25 09:18:43;;;;;;;1999.90;999.90;;;2.20;70.50;;;;;;5034211;28;20414;-72
2023/01/25 09:21:12;;;;;;;1999.90;999.90;;;2.20;63.60;;;;;;5033909;28;20200;-71
2023/01/25 09:23:38;;;;;;;1999.90;999.90;;;2.10;57.40;;;;;;5033879;28;20215;-72
2023/01/25 09:26:04;;;;;;;1999.90;999.90;;;2.10;77.10;;;;;;5035140;28;20547;-71
2023/01/25 09:28:31;;;;;;;1999.90;999.90;;;2.10;93.40;;;;;;5035635;28;20767;-71
2023/01/25 09:31:02;;;;;;;1999.90;999.90;;;2.10;99.90;;;;;;5034974;28;20180;-71
2023/01/25 09:33:39;;;;;;;1999.90;999.90;;;2.10;97.90;;;;;;5035702;28;20180;-71
2023/01/25 09:36:05;;;;;;;1999.90;999.90;;;2.10;99.90;;;;;;5035292;28;20349;-71
2023/01/25 09:38:31;;;;;;;1999.90;999.90;;;2.10;99.90;;;;;;5035374;28;20664;-71
2023/01/25 09:41:03;;;;;;;1999.90;999.90;;;2.10;99.90;;;;;;5034755;28;20291;-71
2023/01/25 09:43:47;;;;;;;1999.90;999.90;;;2.10;99.90;;;;;;5035278;28;20204;-71
2023/01/25 09:46:35;;;;;;;1999.90;999.90;;;2.20;99.90;;;;;;5033512;28;20172;-68
2023/01/25 09:49:44;;;;;;;1999.90;999.90;;;2.20;99.60;;;;;;5046413;28;20168;-71
2023/01/25 09:52:43;;;;;;;1999.90;999.90;;;2.20;99.90;;;;;;5056138;28;20168;-71
2023/01/25 09:55:13;;;;;;;1999.90;999.90;;;2.20;99.90;;;;;;5055598;28;20222;-71
2023/01/25 09:57:40;;;;;;;1999.90;999.90;;;2.30;99.90;;;;;;5054757;28;20175;-72
2023/01/25 10:00:19;;;;;;;1999.90;999.90;;;2.40;99.90;;;;;;5055439;28;20176;-69
2023/01/25 10:02:45;;;;;;;1999.90;999.90;;;2.30;82.50;;;;;;5055422;28;20217;-68
2023/01/25 10:05:22;;;;;;;1999.90;999.90;;;2.30;54.40;;;;;;5054815;28;20195;-68
2023/01/25 10:07:57;;;;;;;1999.90;999.90;;;2.30;55.60;;;;;;5055055;28;20683;-69
2023/01/25 10:10:27;;;;;;;1999.90;999.90;;;2.20;52.50;;;;;;5055092;28;20182;-67
2023/01/25 10:12:52;;;;;;;1999.90;999.90;;;2.20;52.00;;;;;;5053845;28;20582;-70
2023/01/25 10:15:27;;;;;;;1999.90;999.90;;;2.20;54.20;;;;;;5052928;28;20179;-71
2023/01/25 10:18:06;;;;;;;1999.90;999.90;;;2.10;71.00;;;;;;5052723;28;20159;-71
2023/01/25 10:20:41;;;;;;;1999.90;999.90;;;2.10;86.60;;;;;;5053228;28;20172;-71
2023/01/25 10:23:37;;;;;;;1999.90;999.90;;;2.10;89.40;;;;;;5054530;28;20282;-71
2023/01/25 10:26:25;;;;;;;1999.90;999.90;;;2.10;88.90;;;;;;5054500;28;20672;-71
2023/01/25 10:29:17;;;;;;;1999.90;999.90;;;4.00;91.00;;;;;;5054500;28;20207;-71
2023/01/25 10:31:49;;;;;;;1999.90;999.90;;;2.10;95.80;;;;;;5051797;28;20190;-70
2023/01/25 10:34:28;;;;;;;1999.90;999.90;;;2.10;96.00;;;;;;5063601;28;20245;-67
2023/01/25 10:36:56;;;;;;;1999.90;999.90;;;2.10;97.70;;;;;;5052026;28;20163;-67
2023/01/25 10:39:22;;;;;;;1999.90;999.90;;;2.20;92.80;;;;;;5049393;28;20167;-68
2023/01/25 10:41:54;;;;;;;1999.90;999.90;;;2.10;91.10;;;;;;5053045;28;20179;-68
2023/01/25 10:44:20;;;;;;;1999.90;999.90;;;2.20;93.90;;;;;;5038834;28;20708;-69
2023/01/25 10:47:14;;;;;;;1999.90;999.90;;;2.20;80.40;;;;;;5034209;28;20172;-69
2023/01/25 10:49:53;;;;;;;1999.90;999.90;;;2.20;70.30;;;;;;5050841;28;20412;-70
2023/01/25 10:52:28;;;;;;;1999.90;999.90;;;2.10;73.90;;;;;;5041838;28;20544;-71
2023/01/25 10:55:18;;;;;;;1999.90;999.90;;;2.10;70.10;;;;;;5032438;28;20211;-71
2023/01/25 10:57:48;;;;;;;1999.90;999.90;;;2.00;75.20;;;;;;5034437;28;20180;-68
2023/01/25 11:00:37;;;;;;;1999.90;999.90;;;2.00;93.30;;;;;;5033948;28;20204;-68
2023/01/25 11:03:03;;;;;;;1999.90;999.90;;;2.00;91.40;;;;;;5035262;28;20188;-68
2023/01/25 11:05:38;;;;;;;1999.90;999.90;;;1.90;76.50;;;;;;5041168;28;20202;-69
2023/01/25 11:08:28;;;;;;;1999.90;999.90;;;2.00;79.10;;;;;;5053179;28;20285;-70
2023/01/25 11:10:54;;;;;;;1999.90;999.90;;;2.00;80.30;;;;;;5035169;28;20650;-70
2023/01/25 11:13:28;;;;;;;1999.90;999.90;;;1.90;84.50;;;;;;5032758;28;20190;-71
2023/01/25 11:16:19;;;;;;;1999.90;999.90;;;1.90;99.60;;;;;;5032706;28;20165;-69
2023/01/25 11:18:53;;;;;;;1999.90;999.90;;;2.00;99.90;;;;;;5033630;28;20168;-71
2023/01/25 11:21:26;;;;;;;1999.90;999.90;;;2.00;99.90;;;;;;5032843;28;20714;-72
2023/01/25 11:24:01;;;;;;;1999.90;999.90;;;2.10;99.90;;;;;;5033576;28;20208;-71
2023/01/25 11:26:28;;;;;;;1999.90;999.90;;;2.80;99.80;;;;;;5033839;28;20192;-70
2023/01/25 11:29:15;;;;;;;1999.90;999.90;;;2.10;99.90;;;;;;5033437;28;20212;-69
2023/01/25 11:31:45;;;;;;;1999.90;999.90;;;2.20;99.90;;;;;;5032421;28;20165;-69
2023/01/25 11:34:14;;;;;;;1999.90;999.90;;;2.20;90.30;;;;;;5032196;28;20196;-70
2023/01/25 11:36:57;;;;;;;1999.90;999.90;;;2.10;82.20;;;;;;5035609;28;20663;-70
2023/01/25 11:39:32;;;;;;;1999.90;999.90;;;2.10;92.20;;;;;;5040990;28;20179;-73
2023/01/25 11:42:29;;;;;;;1999.90;999.90;;;2.20;93.50;;;;;;5060173;28;20656;-71
2023/01/25 11:45:26;;;;;;;1999.90;999.90;;;2.20;92.90;;;;;;5028961;28;20216;-70
2023/01/25 11:48:10;;;;;;;1999.90;999.90;;;2.20;91.50;;;;;;5036638;28;20502;-71
2023/01/25 11:50:57;;;;;;;1999.90;999.90;;;2.30;83.80;;;;;;5038549;28;20172;-71
2023/01/25 11:53:29;;;;;;;1999.90;999.90;;;2.30;61.90;;;;;;5037832;28;20192;-71
2023/01/25 11:56:13;;;;;;;1999.90;999.90;;;2.30;55.80;;;;;;5038630;28;20169;-71
2023/01/25 11:58:47;;;;;;;1999.90;999.90;;;2.20;51.50;;;;;;5036568;28;20167;-71
2023/01/25 12:01:43;;;;;;;1999.90;999.90;;;2.10;65.20;;;;;;5037634;28;20167;-71
2023/01/25 12:04:23;;;;;;;1999.90;999.90;;;2.00;52.40;;;;;;5038885;28;20196;-71
2023/01/25 12:07:02;;;;;;;1999.90;999.90;;;1.90;75.10;;;;;;5039046;28;20157;-71
2023/01/25 12:09:50;;;;;;;1999.90;999.90;;;1.90;76.20;;;;;;5039397;28;20228;-71
2023/01/25 12:12:42;;;;;;;1999.90;999.90;;;1.90;92.00;;;;;;5039578;28;20176;-71
2023/01/25 12:16:00;;;;;;;1999.90;999.90;;;1.90;89.60;;;;;;5039418;28;20707;-71
2023/01/25 12:19:10;;;;;;;1999.90;999.90;;;1.90;80.10;;;;;;5005559;28;20192;-71
2023/01/25 12:21:52;;;;;;;1999.90;999.90;;;1.90;80.60;;;;;;5023374;28;20176;-71
2023/01/25 12:24:32;;;;;;;1999.90;999.90;;;1.90;95.40;;;;;;5039138;28;20192;-71
2023/01/25 12:27:22;;;;;;;1999.90;999.90;;;2.00;99.90;;;;;;5038941;28;20179;-71